Terminal Aerodrome Forecast
Issued by NWS

Home | Current Version | Previous Version | Text Only | Print | Product List | Glossary On
Versions: 1 2 3 4 5 6 7 8 9 10 11 12 13 14 15 16 17 18 19 20 21 22 23 24 25 26 27 28 29 30 31
000
FTUS42 KCAE 301427 AAA
TAFDNL
TAF AMD
KDNL 301427Z 3014/3112 09005KT P6SM -RA BKN012 OVC050
      TEMPO 3014/3017 3SM RA SCT016 OVC050
     FM301700 11006KT P6SM VCSH SCT025 OVC045
     FM310300 VRB04KT 5SM BR OVC004=

USA.gov is the U.S. government's official web portal to all federal, state and local government web resources and services.